createdAt,value
2022-11-10T00:01:24.882Z,3.50
2022-11-10T00:04:14.382Z,3.20
2022-11-10T00:07:01.408Z,3.20
2022-11-10T00:09:52.606Z,3.43
2022-11-10T00:12:41.573Z,4.30
2022-11-10T00:15:48.554Z,2.80
2022-11-10T00:18:36.778Z,2.80
2022-11-10T00:21:25.082Z,2.60
2022-11-10T00:24:14.148Z,3.33
2022-11-10T00:27:04.180Z,4.13
2022-11-10T00:29:53.744Z,3.77
2022-11-10T00:32:41.171Z,3.20
2022-11-10T00:35:30.445Z,3.67
2022-11-10T00:38:17.780Z,3.60
2022-11-10T00:41:07.309Z,4.20
2022-11-10T00:43:56.679Z,4.00
2022-11-10T00:46:45.984Z,4.43
2022-11-10T00:49:35.793Z,3.77
2022-11-10T00:52:23.571Z,3.90
2022-11-10T00:55:11.817Z,3.97
2022-11-10T00:58:02.129Z,3.90
2022-11-10T01:00:49.943Z,4.17
2022-11-10T01:03:37.275Z,4.10
2022-11-10T01:06:25.832Z,4.23
2022-11-10T01:09:15.344Z,5.37
2022-11-10T01:12:04.453Z,4.97
2022-11-10T01:14:53.323Z,4.87
2022-11-10T01:17:41.883Z,5.57
2022-11-10T01:20:28.945Z,5.27
2022-11-10T01:23:15.883Z,5.17
2022-11-10T01:26:05.123Z,5.47
2022-11-10T01:28:52.039Z,5.57
2022-11-10T01:31:41.183Z,6.13
2022-11-10T01:34:29.400Z,5.80
2022-11-10T01:37:16.414Z,4.83
2022-11-10T01:40:05.697Z,4.83
2022-11-10T01:42:58.399Z,5.03
2022-11-10T01:45:48.351Z,4.90
2022-11-10T01:48:42.615Z,5.67
2022-11-10T01:51:35.907Z,5.30
2022-11-10T01:54:27.305Z,5.13
2022-11-10T01:57:16.336Z,4.80
2022-11-10T02:00:05.244Z,5.47
2022-11-10T02:03:22.521Z,5.90
2022-11-10T02:06:12.085Z,5.10
2022-11-10T02:08:59.424Z,5.00
2022-11-10T02:11:51.645Z,5.63
2022-11-10T02:14:41.219Z,5.23
2022-11-10T02:17:28.144Z,4.90
2022-11-10T02:20:17.492Z,5.00
2022-11-10T02:23:16.709Z,5.00
2022-11-10T02:26:06.095Z,5.20
2022-11-10T02:28:55.114Z,4.87
2022-11-10T02:31:42.135Z,4.63
2022-11-10T02:34:30.904Z,5.93
2022-11-10T02:37:19.112Z,4.80
2022-11-10T02:40:08.941Z,4.17
2022-11-10T02:42:57.808Z,5.03
2022-11-10T02:45:45.115Z,4.80
2022-11-10T02:48:33.723Z,4.50
2022-11-10T02:51:21.564Z,5.23
2022-11-10T02:54:08.459Z,4.77
2022-11-10T02:56:58.580Z,5.17
2022-11-10T02:59:45.556Z,5.03
2022-11-10T03:02:32.546Z,5.20
2022-11-10T03:05:19.500Z,5.50
2022-11-10T03:08:07.695Z,4.73
2022-11-10T03:10:57.714Z,5.27
2022-11-10T03:14:00.749Z,5.07
2022-11-10T03:16:50.203Z,5.07
2022-11-10T03:19:38.517Z,5.40
2022-11-10T03:22:27.143Z,5.60
2022-11-10T03:25:17.044Z,4.47
2022-11-10T03:28:06.214Z,5.13
2022-11-10T03:30:53.763Z,4.90
2022-11-10T03:33:41.340Z,4.93
2022-11-10T03:36:29.222Z,5.87
2022-11-10T03:39:18.993Z,5.47
2022-11-10T03:42:05.974Z,4.77
2022-11-10T03:44:54.431Z,4.37
2022-11-10T03:47:43.809Z,4.70
2022-11-10T03:50:32.889Z,4.50
2022-11-10T03:53:22.153Z,4.43
2022-11-10T03:56:11.438Z,4.70
2022-11-10T03:59:00.037Z,4.80
2022-11-10T04:01:48.485Z,5.20
2022-11-10T04:04:56.046Z,5.53
2022-11-10T04:08:03.855Z,4.90
2022-11-10T04:10:52.269Z,5.77
2022-11-10T04:13:59.863Z,5.87
2022-11-10T04:16:46.848Z,6.40
2022-11-10T04:19:33.744Z,5.47
2022-11-10T04:22:40.687Z,4.83
2022-11-10T04:25:27.639Z,5.83
2022-11-10T04:28:14.599Z,6.63
2022-11-10T04:31:01.533Z,6.57
2022-11-10T04:33:49.793Z,6.40
2022-11-10T04:36:39.005Z,5.90
2022-11-10T04:39:25.961Z,5.93
2022-11-10T04:42:12.975Z,6.47
2022-11-10T04:44:59.911Z,6.47
2022-11-10T04:47:46.844Z,6.23
2022-11-10T04:50:34.832Z,7.00
2022-11-10T04:53:22.126Z,7.63
2022-11-10T04:56:16.344Z,7.43
2022-11-10T04:59:04.685Z,8.13
2022-11-10T05:01:52.842Z,7.30
2022-11-10T05:04:42.120Z,8.17
2022-11-10T05:07:31.426Z,7.93
2022-11-10T05:10:19.416Z,8.57
2022-11-10T05:13:07.294Z,8.87
2022-11-10T05:15:55.212Z,8.50
2022-11-10T05:18:43.130Z,9.03
2022-11-10T05:21:34.033Z,9.33
2022-11-10T05:24:21.494Z,10.33
2022-11-10T05:27:09.823Z,10.40
2022-11-10T05:29:57.762Z,10.90
2022-11-10T05:32:45.945Z,11.10
2022-11-10T05:35:34.524Z,11.20
2022-11-10T05:38:22.543Z,12.60
2022-11-10T05:41:12.334Z,12.60
2022-11-10T05:44:00.368Z,13.03
2022-11-10T05:46:48.466Z,12.63
2022-11-10T05:49:36.632Z,12.33
2022-11-10T05:52:24.879Z,13.30
2022-11-10T05:55:13.923Z,14.87
2022-11-10T05:58:02.120Z,16.27
2022-11-10T06:00:49.758Z,22.40
2022-11-10T06:03:37.579Z,22.60
2022-11-10T06:06:25.360Z,18.07
2022-11-10T06:09:12.952Z,17.90
2022-11-10T06:12:01.936Z,16.53
2022-11-10T06:14:49.777Z,16.50
2022-11-10T06:17:38.687Z,18.50
2022-11-10T06:20:27.332Z,18.47
2022-11-10T06:23:16.174Z,20.30
2022-11-10T06:26:04.314Z,19.27
2022-11-10T06:28:52.548Z,20.13
2022-11-10T06:31:40.804Z,18.80
2022-11-10T06:34:29.339Z,19.50
2022-11-10T06:37:17.799Z,18.27
2022-11-10T06:40:08.193Z,19.97
2022-11-10T06:42:55.164Z,20.43
2022-11-10T06:45:42.105Z,19.90
2022-11-10T06:48:29.036Z,19.40
2022-11-10T06:51:15.949Z,19.47
2022-11-10T06:54:04.143Z,18.63
2022-11-10T06:56:52.447Z,18.73
2022-11-10T06:59:40.644Z,19.43
2022-11-10T07:02:29.039Z,18.00
2022-11-10T07:05:15.995Z,17.70
2022-11-10T07:08:07.408Z,19.80
2022-11-10T07:10:55.529Z,18.40
2022-11-10T07:13:43.095Z,17.23
2022-11-10T07:16:30.019Z,17.47
2022-11-10T07:19:16.950Z,17.43
2022-11-10T07:22:09.585Z,17.30
2022-11-10T07:24:57.659Z,17.00
2022-11-10T07:27:44.619Z,16.20
2022-11-10T07:30:33.840Z,15.73
2022-11-10T07:33:22.051Z,15.53
2022-11-10T07:36:09.145Z,14.67
2022-11-10T07:38:56.109Z,16.17
2022-11-10T07:41:47.629Z,16.47
2022-11-10T07:44:36.926Z,15.37
2022-11-10T07:47:25.929Z,14.63
2022-11-10T07:50:12.914Z,14.57
2022-11-10T07:53:26.235Z,13.40
2022-11-10T07:56:14.428Z,13.17
2022-11-10T07:59:02.202Z,13.27
2022-11-10T08:01:49.841Z,12.17
2022-11-10T08:04:37.445Z,12.10
2022-11-10T08:07:25.346Z,11.60
2022-11-10T08:10:13.063Z,13.27
2022-11-10T08:13:02.802Z,12.70
2022-11-10T08:15:49.730Z,11.23
2022-11-10T08:18:37.238Z,11.50
2022-11-10T08:21:24.123Z,12.13
2022-11-10T08:24:11.451Z,11.57
2022-11-10T08:26:58.366Z,14.20
2022-11-10T08:29:45.306Z,14.80
2022-11-10T08:32:32.233Z,13.37
2022-11-10T08:35:19.134Z,14.47
2022-11-10T08:38:10.955Z,15.93
2022-11-10T08:40:58.053Z,14.77
2022-11-10T08:43:44.995Z,13.33
2022-11-10T08:46:31.890Z,12.73
2022-11-10T08:49:19.217Z,13.73
2022-11-10T08:52:06.211Z,13.47
2022-11-10T08:54:53.174Z,12.93
2022-11-10T08:57:40.534Z,12.80
2022-11-10T09:00:28.635Z,12.97
2022-11-10T09:03:18.548Z,12.47
2022-11-10T09:06:05.954Z,13.27
2022-11-10T09:08:53.627Z,12.90
2022-11-10T09:11:40.968Z,12.37
2022-11-10T09:14:28.314Z,11.37
2022-11-10T09:17:15.627Z,11.97
2022-11-10T09:20:03.579Z,12.73
2022-11-10T09:22:51.007Z,13.17
2022-11-10T09:25:38.789Z,11.90
2022-11-10T09:28:26.264Z,13.13
2022-11-10T09:31:13.596Z,11.57
2022-11-10T09:34:01.614Z,12.43
2022-11-10T09:36:48.943Z,12.07
2022-11-10T09:39:36.382Z,13.07
2022-11-10T09:42:30.362Z,12.37
2022-11-10T09:45:20.746Z,12.43
2022-11-10T09:48:18.203Z,11.77
2022-11-10T09:51:25.123Z,12.77
2022-11-10T09:54:12.463Z,13.30
2022-11-10T09:57:00.805Z,12.83
2022-11-10T09:59:48.533Z,11.70
2022-11-10T10:02:41.640Z,11.50
2022-11-10T10:05:47.899Z,11.83
2022-11-10T10:08:54.079Z,12.87
2022-11-10T10:11:49.655Z,11.83
2022-11-10T10:14:56.396Z,12.13
2022-11-10T10:17:46.882Z,11.90
2022-11-10T10:20:40.181Z,11.90
2022-11-10T10:24:07.248Z,11.13
2022-11-10T10:26:49.965Z,8.40
2022-11-10T10:29:49.149Z,9.43
2022-11-10T10:32:36.505Z,10.50
2022-11-10T10:35:24.000Z,10.87
2022-11-10T10:38:17.057Z,11.57
2022-11-10T10:41:11.888Z,10.17
2022-11-10T10:44:00.759Z,9.47
2022-11-10T10:46:48.135Z,10.10
2022-11-10T10:49:36.737Z,11.03
2022-11-10T10:52:25.413Z,9.60
2022-11-10T10:55:13.659Z,10.03
2022-11-10T10:58:20.638Z,9.73
2022-11-10T11:01:20.266Z,9.73
2022-11-10T11:04:27.473Z,9.13
2022-11-10T11:07:22.865Z,10.37
2022-11-10T11:10:20.625Z,9.93
2022-11-10T11:13:23.344Z,10.03
2022-11-10T11:16:12.610Z,9.53
2022-11-10T11:19:00.195Z,9.37
2022-11-10T11:21:47.539Z,8.20
2022-11-10T11:24:35.107Z,8.73
2022-11-10T11:27:35.283Z,9.00
2022-11-10T11:30:23.731Z,8.53
2022-11-10T11:33:11.059Z,9.17
2022-11-10T11:36:01.935Z,8.50
2022-11-10T11:38:53.802Z,8.43
2022-11-10T11:41:41.112Z,9.17
2022-11-10T11:44:37.837Z,8.30
2022-11-10T11:47:25.195Z,8.30
2022-11-10T11:50:15.672Z,7.90
2022-11-10T11:53:20.870Z,7.77
2022-11-10T11:56:18.859Z,7.63
2022-11-10T11:59:15.063Z,7.03
2022-11-10T12:02:03.738Z,8.07
2022-11-10T12:04:54.055Z,6.50
2022-11-10T12:07:45.047Z,7.87
2022-11-10T12:10:43.262Z,7.73
2022-11-10T12:13:38.205Z,7.83
2022-11-10T12:16:31.112Z,6.87
2022-11-10T12:19:24.626Z,7.97
2022-11-10T12:22:32.716Z,6.90
2022-11-10T12:25:20.038Z,7.27
2022-11-10T12:28:14.007Z,6.73
2022-11-10T12:31:03.176Z,6.53
2022-11-10T12:34:02.474Z,7.03
2022-11-10T12:36:51.422Z,6.87
2022-11-10T12:39:49.255Z,8.40
2022-11-10T12:42:38.377Z,7.20
2022-11-10T12:45:32.241Z,7.60
2022-11-10T12:48:20.524Z,6.67
2022-11-10T12:51:34.576Z,7.07
2022-11-10T12:54:22.187Z,6.97
2022-11-10T12:57:12.562Z,6.83
2022-11-10T13:00:25.195Z,6.33
2022-11-10T13:03:35.298Z,6.33
2022-11-10T13:06:28.500Z,6.63
2022-11-10T13:09:26.052Z,6.63
2022-11-10T13:12:23.793Z,6.33
2022-11-10T13:15:29.984Z,6.53
2022-11-10T13:18:32.334Z,6.50
2022-11-10T13:21:39.678Z,5.43
2022-11-10T13:24:40.491Z,5.80
2022-11-10T13:27:33.766Z,5.67
2022-11-10T13:30:37.341Z,6.30
2022-11-10T13:33:31.493Z,6.40
2022-11-10T13:36:37.040Z,5.70
2022-11-10T13:39:26.796Z,6.30
2022-11-10T13:42:23.847Z,5.23
2022-11-10T13:45:29.683Z,5.47
2022-11-10T13:48:27.923Z,6.27
2022-11-10T13:51:21.473Z,5.83
2022-11-10T13:54:20.872Z,5.87
2022-11-10T13:57:20.483Z,5.23
2022-11-10T14:00:17.083Z,6.30
2022-11-10T14:03:05.931Z,6.03
2022-11-10T14:06:02.640Z,4.93
2022-11-10T14:08:55.439Z,5.20
2022-11-10T14:11:52.059Z,5.30
2022-11-10T14:14:54.883Z,4.57
2022-11-10T14:17:46.258Z,5.20
2022-11-10T14:20:38.530Z,5.07
2022-11-10T14:23:25.876Z,4.80
2022-11-10T14:26:17.524Z,5.33
2022-11-10T14:29:21.376Z,4.30
2022-11-10T14:32:17.557Z,4.20
2022-11-10T14:35:05.252Z,5.03
2022-11-10T14:37:52.988Z,4.77
2022-11-10T14:40:41.895Z,4.70
2022-11-10T14:43:30.663Z,5.00
2022-11-10T14:46:24.525Z,4.50
2022-11-10T14:49:11.927Z,4.20
2022-11-10T14:52:00.426Z,4.57
2022-11-10T14:54:48.009Z,4.53
2022-11-10T14:57:35.447Z,4.10
2022-11-10T15:00:27.740Z,4.27
2022-11-10T15:03:17.849Z,3.93
2022-11-10T15:06:07.683Z,4.37
2022-11-10T15:08:55.068Z,4.57
2022-11-10T15:11:50.699Z,4.00
2022-11-10T15:14:39.852Z,3.87
2022-11-10T15:17:50.319Z,3.63
2022-11-10T15:20:39.283Z,3.87
2022-11-10T15:23:33.414Z,4.33
2022-11-10T15:26:22.536Z,3.67
2022-11-10T15:29:19.329Z,4.30
2022-11-10T15:32:14.782Z,3.33
2022-11-10T15:35:25.536Z,4.03
2022-11-10T15:38:15.565Z,3.53
2022-11-10T15:41:07.350Z,3.93
2022-11-10T15:43:54.661Z,5.03
2022-11-10T15:46:42.257Z,4.03
2022-11-10T15:49:35.120Z,4.10
2022-11-10T15:52:23.411Z,3.80
2022-11-10T15:55:20.873Z,3.10
2022-11-10T15:58:28.096Z,3.30
2022-11-10T16:01:17.367Z,3.30
2022-11-10T16:04:04.807Z,3.23
2022-11-10T16:06:52.256Z,2.67
2022-11-10T16:09:39.607Z,3.87
2022-11-10T16:12:27.959Z,3.37
2022-11-10T16:15:18.868Z,3.03
2022-11-10T16:18:38.863Z,3.00
2022-11-10T16:21:29.448Z,2.87
2022-11-10T16:24:16.785Z,3.23
2022-11-10T16:27:08.510Z,3.30
2022-11-10T16:29:56.205Z,3.20
2022-11-10T16:32:43.544Z,2.87
2022-11-10T16:35:31.014Z,2.93
2022-11-10T16:38:23.587Z,3.13
2022-11-10T16:41:17.323Z,2.70
2022-11-10T16:44:06.141Z,3.38
2022-11-10T16:46:55.807Z,2.50
2022-11-10T16:49:44.194Z,3.27
2022-11-10T16:52:31.598Z,2.70
2022-11-10T16:55:18.989Z,2.50
2022-11-10T16:58:06.317Z,3.00
2022-11-10T17:00:54.459Z,3.23
2022-11-10T17:03:45.037Z,3.00
2022-11-10T17:06:32.509Z,2.60
2022-11-10T17:09:21.698Z,3.23
2022-11-10T17:12:12.375Z,3.00
2022-11-10T17:14:59.731Z,3.30
2022-11-10T17:17:48.959Z,2.90
2022-11-10T17:20:37.870Z,3.30
2022-11-10T17:23:26.125Z,3.13
2022-11-10T17:26:15.594Z,2.97
2022-11-10T17:29:03.138Z,2.53
2022-11-10T17:31:50.585Z,2.80
2022-11-10T17:34:38.054Z,2.73
2022-11-10T17:37:25.421Z,2.67
2022-11-10T17:40:18.558Z,2.77
2022-11-10T17:43:06.000Z,2.70
2022-11-10T17:45:53.675Z,2.57
2022-11-10T17:48:41.148Z,3.10
2022-11-10T17:51:28.508Z,3.77
2022-11-10T17:54:16.099Z,2.50
2022-11-10T17:57:04.388Z,2.10
2022-11-10T17:59:51.779Z,2.93
2022-11-10T18:02:39.167Z,2.73
2022-11-10T18:05:26.543Z,2.17
2022-11-10T18:08:14.491Z,2.73
2022-11-10T18:11:01.892Z,2.73
2022-11-10T18:13:49.333Z,3.53
2022-11-10T18:16:36.681Z,3.37
2022-11-10T18:19:24.082Z,2.60
2022-11-10T18:22:11.570Z,3.30
2022-11-10T18:24:58.925Z,3.47
2022-11-10T18:27:46.264Z,3.20
2022-11-10T18:30:35.192Z,2.73
2022-11-10T18:33:23.055Z,2.80
2022-11-10T18:36:11.178Z,3.23
2022-11-10T18:38:58.527Z,2.87
2022-11-10T18:41:48.876Z,2.60
2022-11-10T18:44:36.985Z,3.10
2022-11-10T18:47:24.386Z,3.10
2022-11-10T18:50:11.797Z,2.80
2022-11-10T18:52:59.213Z,2.53
2022-11-10T18:55:53.755Z,2.53
2022-11-10T18:58:41.430Z,2.60
2022-11-10T19:01:29.214Z,3.10
2022-11-10T19:04:16.715Z,2.60
2022-11-10T19:07:04.210Z,2.43
2022-11-10T19:09:51.651Z,3.03
2022-11-10T19:12:39.262Z,2.93
2022-11-10T19:15:26.659Z,3.63
2022-11-10T19:18:14.078Z,3.00
2022-11-10T19:21:05.521Z,3.67
2022-11-10T19:23:56.746Z,6.90
2022-11-10T19:26:44.676Z,4.27
2022-11-10T19:29:32.076Z,4.63
2022-11-10T19:32:24.518Z,6.47
2022-11-10T19:35:13.424Z,4.20
2022-11-10T19:38:00.847Z,4.30
2022-11-10T19:40:48.407Z,3.93
2022-11-10T19:43:35.938Z,3.67
2022-11-10T19:46:27.678Z,3.53
2022-11-10T19:49:15.071Z,5.93
2022-11-10T19:52:02.512Z,6.00
2022-11-10T19:54:49.892Z,4.37
2022-11-10T19:57:37.246Z,3.90
2022-11-10T20:00:25.034Z,2.50
2022-11-10T20:03:12.364Z,2.33
2022-11-10T20:06:00.710Z,2.63
2022-11-10T20:08:49.051Z,2.63
2022-11-10T20:11:36.412Z,2.70
2022-11-10T20:14:23.778Z,2.80
2022-11-10T20:17:11.116Z,2.43
2022-11-10T20:19:58.433Z,2.50
2022-11-10T20:22:45.879Z,3.00
2022-11-10T20:25:33.942Z,2.80
2022-11-10T20:28:21.271Z,2.53
2022-11-10T20:31:13.397Z,2.37
2022-11-10T20:34:00.753Z,2.50
2022-11-10T20:36:48.085Z,3.00
2022-11-10T20:39:35.439Z,3.43
2022-11-10T20:42:22.783Z,2.50
2022-11-10T20:45:10.420Z,2.57
2022-11-10T20:47:58.544Z,2.23
2022-11-10T20:50:45.935Z,2.40
2022-11-10T20:53:33.288Z,2.10
2022-11-10T20:56:24.076Z,2.40
2022-11-10T20:59:14.374Z,2.17
2022-11-10T21:02:01.762Z,2.17
2022-11-10T21:04:49.168Z,2.37
2022-11-10T21:07:36.554Z,2.70
2022-11-10T21:10:23.897Z,2.83
2022-11-10T21:13:11.239Z,2.70
2022-11-10T21:15:59.407Z,2.67
2022-11-10T21:18:46.809Z,2.37
2022-11-10T21:21:34.495Z,2.40
2022-11-10T21:24:22.145Z,2.33
2022-11-10T21:27:12.136Z,2.87
2022-11-10T21:30:00.231Z,2.73
2022-11-10T21:32:47.566Z,2.40
2022-11-10T21:35:38.178Z,2.53
2022-11-10T21:38:25.782Z,2.17
2022-11-10T21:41:13.134Z,2.40
2022-11-10T21:44:00.571Z,2.73
2022-11-10T21:46:47.989Z,2.60
2022-11-10T21:49:35.320Z,2.60
2022-11-10T21:52:22.674Z,2.73
2022-11-10T21:55:10.455Z,2.30
2022-11-10T21:57:58.085Z,2.83
2022-11-10T22:00:45.428Z,2.30
2022-11-10T22:03:33.150Z,2.37
2022-11-10T22:06:21.405Z,2.30
2022-11-10T22:09:08.750Z,2.90
2022-11-10T22:12:14.946Z,2.33
2022-11-10T22:15:21.013Z,3.27
2022-11-10T22:18:34.043Z,2.03
2022-11-10T22:21:21.377Z,2.90
2022-11-10T22:24:23.870Z,2.80
2022-11-10T22:27:11.348Z,2.97
2022-11-10T22:29:58.725Z,2.40
2022-11-10T22:32:46.047Z,2.40
2022-11-10T22:35:45.712Z,2.70
2022-11-10T22:38:40.361Z,2.87
2022-11-10T22:41:46.541Z,3.40
2022-11-10T22:44:33.870Z,3.40
2022-11-10T22:47:21.202Z,3.77
2022-11-10T22:50:08.703Z,4.30
2022-11-10T22:52:57.422Z,4.40
2022-11-10T22:55:44.766Z,3.93
2022-11-10T22:58:32.090Z,4.40
2022-11-10T23:01:20.075Z,4.27
2022-11-10T23:04:07.561Z,5.00
2022-11-10T23:06:54.929Z,4.37
2022-11-10T23:09:42.303Z,4.43
2022-11-10T23:12:29.670Z,4.43
2022-11-10T23:15:17.082Z,4.37
2022-11-10T23:18:06.781Z,4.10
2022-11-10T23:21:02.037Z,4.43
2022-11-10T23:23:49.688Z,3.93
2022-11-10T23:26:37.096Z,4.50
2022-11-10T23:29:24.500Z,3.90
2022-11-10T23:32:11.869Z,4.10
2022-11-10T23:34:59.224Z,4.30
2022-11-10T23:37:46.564Z,4.03
2022-11-10T23:40:34.051Z,4.47
2022-11-10T23:43:21.974Z,3.83
2022-11-10T23:46:10.259Z,4.83
2022-11-10T23:48:57.585Z,4.33
2022-11-10T23:51:44.905Z,4.37
2022-11-10T23:54:32.300Z,4.43
2022-11-10T23:57:19.659Z,3.77
